createdAt,value
2022-09-23T05:28:56.449Z,67.80
2022-09-23T05:31:25.492Z,67.90
2022-09-23T05:34:01.228Z,67.90
2022-09-23T05:36:34.264Z,67.90
2022-09-23T05:39:04.432Z,67.90
2022-09-23T05:41:31.247Z,67.90
2022-09-23T05:43:59.594Z,68.00
2022-09-23T05:46:28.266Z,68.00
2022-09-23T05:49:02.629Z,68.10
2022-09-23T05:51:31.399Z,67.90
2022-09-23T05:53:59.381Z,68.00
2022-09-23T05:56:27.683Z,67.90
2022-09-23T05:58:56.558Z,67.90
2022-09-23T06:01:25.495Z,67.90
2022-09-23T06:03:53.629Z,67.90
2022-09-23T06:06:26.257Z,67.90
2022-09-23T06:08:53.249Z,67.90
2022-09-23T06:11:21.357Z,68.00
2022-09-23T06:13:49.208Z,67.70
2022-09-23T06:16:16.279Z,67.80
2022-09-23T06:18:45.079Z,67.90
2022-09-23T06:21:16.667Z,67.90
2022-09-23T06:23:44.695Z,67.80
2022-09-23T06:26:14.077Z,67.70
2022-09-23T06:28:42.863Z,67.60
2022-09-23T06:31:15.277Z,67.50
2022-09-23T06:33:43.502Z,67.40
2022-09-23T06:36:11.784Z,67.10
2022-09-23T06:38:39.987Z,67.10
2022-09-23T06:41:07.035Z,67.10
2022-09-23T06:43:33.840Z,66.90
2022-09-23T06:46:02.015Z,66.60
2022-09-23T06:48:29.527Z,66.30
2022-09-23T06:51:02.366Z,66.10
2022-09-23T06:53:32.440Z,65.90
2022-09-23T06:56:02.359Z,65.80
2022-09-23T06:58:30.259Z,65.60
2022-09-23T07:01:05.381Z,65.40
2022-09-23T07:03:32.043Z,65.30
2022-09-23T07:05:59.732Z,65.00
2022-09-23T07:08:28.379Z,64.90
2022-09-23T07:10:57.656Z,64.90
2022-09-23T07:13:24.853Z,64.90
2022-09-23T07:15:52.744Z,64.60
2022-09-23T07:18:21.739Z,64.50
2022-09-23T07:20:48.505Z,64.40
2022-09-23T07:23:15.212Z,64.50
2022-09-23T07:25:42.284Z,64.30
2022-09-23T07:28:08.966Z,64.30
2022-09-23T07:30:48.296Z,64.30
2022-09-23T07:33:31.528Z,64.30
2022-09-23T07:35:59.595Z,64.20
2022-09-23T07:38:30.060Z,64.00
2022-09-23T07:41:08.832Z,64.20
2022-09-23T07:43:37.148Z,64.30
2022-09-23T07:46:16.751Z,64.30
2022-09-23T07:48:44.444Z,64.40
2022-09-23T07:51:12.892Z,64.30
2022-09-23T07:53:39.728Z,64.20
2022-09-23T07:56:06.557Z,64.00
2022-09-23T07:58:34.175Z,64.00
2022-09-23T08:01:10.129Z,64.10
2022-09-23T08:03:37.347Z,63.70
2022-09-23T08:06:09.637Z,63.30
2022-09-23T08:08:40.298Z,63.20
2022-09-23T08:11:09.858Z,62.90
2022-09-23T08:13:36.897Z,62.70
2022-09-23T08:16:04.325Z,62.20
2022-09-23T08:18:31.150Z,61.90
2022-09-23T08:20:58.849Z,61.80
2022-09-23T08:23:25.589Z,62.10
2022-09-23T08:26:00.776Z,61.70
2022-09-23T08:28:28.081Z,61.00
2022-09-23T08:30:55.536Z,61.00
2022-09-23T08:33:23.761Z,60.90
2022-09-23T08:35:51.784Z,61.00
2022-09-23T08:38:19.016Z,60.90
2022-09-23T08:40:49.339Z,60.60
2022-09-23T08:43:28.019Z,60.10
2022-09-23T08:45:57.149Z,59.90
2022-09-23T08:48:56.511Z,60.00
2022-09-23T08:51:33.491Z,59.40
2022-09-23T08:54:00.338Z,59.00
2022-09-23T08:56:28.502Z,59.10
2022-09-23T08:59:11.775Z,59.80
2022-09-23T09:01:55.366Z,58.90
2022-09-23T09:04:27.834Z,59.30
2022-09-23T09:07:36.094Z,58.40
2022-09-23T09:10:11.388Z,58.40
2022-09-23T09:12:48.212Z,58.80
2022-09-23T09:15:28.742Z,58.10
2022-09-23T09:18:06.360Z,57.90
2022-09-23T09:21:15.948Z,57.90
2022-09-23T09:23:57.085Z,57.50
2022-09-23T09:26:32.598Z,57.60
2022-09-23T09:29:36.113Z,57.00
2022-09-23T09:32:38.145Z,56.60
2022-09-23T09:35:36.725Z,56.90
2022-09-23T09:38:05.930Z,56.70
2022-09-23T09:40:35.012Z,56.50
2022-09-23T09:43:05.118Z,56.20
2022-09-23T09:46:01.587Z,56.10
2022-09-23T09:48:50.331Z,55.70
2022-09-23T09:51:22.943Z,55.10
2022-09-23T09:53:53.465Z,54.90
2022-09-23T09:56:31.125Z,55.00
2022-09-23T09:59:22.841Z,54.80
2022-09-23T10:01:49.575Z,55.30
2022-09-23T10:04:33.835Z,54.80
2022-09-23T10:07:14.157Z,54.60
2022-09-23T10:09:48.450Z,54.20
2022-09-23T10:12:21.494Z,53.40
2022-09-23T10:14:51.220Z,53.20
2022-09-23T10:17:24.329Z,54.10
2022-09-23T10:19:57.927Z,53.60
2022-09-23T10:22:29.802Z,54.10
2022-09-23T10:25:03.077Z,52.90
2022-09-23T10:27:32.616Z,52.40
2022-09-23T10:30:21.502Z,52.10
2022-09-23T10:32:49.546Z,51.60
2022-09-23T10:35:24.317Z,51.30
2022-09-23T10:37:56.125Z,51.10
2022-09-23T10:40:55.717Z,51.20
2022-09-23T10:44:06.730Z,51.10
2022-09-23T10:46:47.485Z,51.40
2022-09-23T10:49:49.744Z,51.20
2022-09-23T10:52:38.918Z,51.50
2022-09-23T10:55:39.518Z,51.30
2022-09-23T10:58:18.167Z,51.10
2022-09-23T11:01:02.356Z,51.30
2022-09-23T11:03:47.792Z,51.60
2022-09-23T11:06:39.305Z,51.50
2022-09-23T11:09:18.029Z,51.40
2022-09-23T11:11:54.765Z,51.70
2022-09-23T11:14:38.725Z,52.00
2022-09-23T11:17:24.377Z,52.50
2022-09-23T11:19:56.699Z,52.30
2022-09-23T11:22:34.745Z,52.70
2022-09-23T11:25:16.765Z,52.70
2022-09-23T11:27:43.472Z,52.70
2022-09-23T11:30:10.206Z,52.70
2022-09-23T11:35:36.735Z,52.70
2022-09-23T11:38:33.857Z,53.20
2022-09-23T11:41:08.916Z,52.80
2022-09-23T11:43:38.792Z,52.50
2022-09-23T11:46:32.534Z,52.40
2022-09-23T11:49:12.553Z,51.80
2022-09-23T11:52:33.112Z,51.50
2022-09-23T11:55:22.951Z,51.00
2022-09-23T11:57:56.894Z,51.20
2022-09-23T12:00:26.558Z,50.80
2022-09-23T12:03:11.536Z,50.00
2022-09-23T12:05:44.663Z,49.60
2022-09-23T12:08:32.244Z,49.40
2022-09-23T12:11:21.156Z,49.60
2022-09-23T12:14:14.256Z,49.00
2022-09-23T12:17:22.003Z,48.80
2022-09-23T12:20:10.223Z,48.80
2022-09-23T12:23:01.096Z,49.60
2022-09-23T12:25:49.895Z,50.00
2022-09-23T12:28:33.638Z,49.90
2022-09-23T12:31:01.963Z,49.60
2022-09-23T12:33:32.621Z,49.70
2022-09-23T12:36:08.415Z,50.00
2022-09-23T12:38:46.829Z,50.70
2022-09-23T12:41:26.638Z,50.60
2022-09-23T12:44:13.822Z,50.30
2022-09-23T12:46:46.435Z,50.30
2022-09-23T12:49:35.460Z,50.30
2022-09-23T12:52:25.149Z,50.10
2022-09-23T12:54:56.361Z,50.60
2022-09-23T12:57:35.008Z,50.70
2022-09-23T13:00:12.779Z,50.90
2022-09-23T13:02:43.540Z,50.80
2022-09-23T13:05:40.020Z,50.20
2022-09-23T13:08:23.586Z,49.70
2022-09-23T13:10:56.392Z,50.00
2022-09-23T13:13:33.316Z,49.70
2022-09-23T13:16:20.240Z,49.50
2022-09-23T13:19:01.137Z,49.20
2022-09-23T13:21:59.536Z,49.20
2022-09-23T13:24:28.808Z,49.40
2022-09-23T13:27:05.867Z,49.60
2022-09-23T13:29:35.260Z,50.00
2022-09-23T13:32:02.376Z,50.20
2022-09-23T13:34:34.509Z,50.10
2022-09-23T13:37:22.686Z,50.30
2022-09-23T13:39:50.299Z,50.40
2022-09-23T13:42:28.961Z,50.40
2022-09-23T13:44:57.731Z,50.80
2022-09-23T13:47:29.497Z,51.20
2022-09-23T13:49:56.754Z,50.70
2022-09-23T13:52:29.864Z,50.60
2022-09-23T13:54:57.010Z,49.90
2022-09-23T13:57:29.377Z,49.60
2022-09-23T14:38:16.171Z,48.90
2022-09-23T14:41:14.708Z,50.20
2022-09-23T14:44:00.576Z,50.60
2022-09-23T14:46:30.480Z,51.30
2022-09-23T14:49:13.014Z,51.30
2022-09-23T14:51:42.756Z,51.50
2022-09-23T14:54:33.814Z,52.00
2022-09-23T14:57:02.328Z,52.30
2022-09-23T14:59:34.127Z,53.00
2022-09-23T15:02:00.867Z,53.70
2022-09-23T15:04:30.888Z,54.00
2022-09-23T15:07:05.921Z,54.40
2022-09-23T15:09:39.779Z,54.70
2022-09-23T15:12:15.225Z,55.30
2022-09-23T15:14:46.485Z,55.70
2022-09-23T15:17:35.752Z,56.10
2022-09-23T15:20:08.120Z,56.20
2022-09-23T15:22:44.041Z,56.60
2022-09-23T15:25:20.394Z,56.70
2022-09-23T15:28:11.926Z,57.10
2022-09-23T15:30:39.804Z,57.10
2022-09-23T15:33:06.652Z,57.50
2022-09-23T15:35:33.382Z,57.80
2022-09-23T15:38:02.081Z,58.00
2022-09-23T15:40:34.715Z,58.30
2022-09-23T15:43:20.242Z,58.50
2022-09-23T15:45:53.143Z,58.90
2022-09-23T15:48:23.992Z,59.20
2022-09-23T15:50:51.758Z,59.60
2022-09-23T15:53:25.075Z,59.90
2022-09-23T15:55:52.204Z,60.20
2022-09-23T15:58:20.407Z,60.50
2022-09-23T16:00:55.641Z,60.70
2022-09-23T16:03:30.338Z,61.50
2022-09-23T16:06:01.086Z,61.30
2022-09-23T16:08:28.963Z,61.70
2022-09-23T16:10:56.325Z,62.00
2022-09-23T16:13:23.173Z,62.30
2022-09-23T16:15:49.983Z,62.60
2022-09-23T16:18:16.805Z,62.80
2022-09-23T16:20:45.413Z,63.00
2022-09-23T16:23:37.454Z,63.30
2022-09-23T16:26:10.606Z,63.60
2022-09-23T16:28:37.753Z,63.00
2022-09-23T16:31:04.674Z,63.90
2022-09-23T16:33:31.430Z,64.20
2022-09-23T16:36:00.717Z,64.60
2022-09-23T16:38:28.907Z,64.00
2022-09-23T16:41:00.442Z,65.10
2022-09-23T16:43:31.502Z,65.60
2022-09-23T16:45:58.618Z,65.90
2022-09-23T16:48:25.372Z,66.30
2022-09-23T16:50:53.585Z,66.70
2022-09-23T16:53:20.329Z,67.30
2022-09-23T16:55:47.135Z,67.50
2022-09-23T16:58:13.748Z,67.80
2022-09-23T17:00:59.239Z,66.90
2022-09-23T17:03:40.985Z,68.00
2022-09-23T17:06:14.632Z,68.40
2022-09-23T17:08:42.435Z,68.80
2022-09-23T17:11:14.248Z,69.00
2022-09-23T17:13:42.220Z,69.40
2022-09-23T17:16:11.695Z,69.80
2022-09-23T17:18:39.361Z,70.10
2022-09-23T17:21:07.965Z,70.30
2022-09-23T17:23:36.399Z,70.60
2022-09-23T17:26:05.393Z,70.60
2022-09-23T17:28:32.183Z,70.80
2022-09-23T17:31:00.703Z,71.00
2022-09-23T17:33:29.524Z,71.20
2022-09-23T17:35:56.866Z,71.40
2022-09-23T17:38:29.299Z,71.40
2022-09-23T17:40:59.252Z,71.50
2022-09-23T17:43:26.008Z,71.60
2022-09-23T17:45:54.231Z,71.80
2022-09-23T17:48:22.248Z,70.80
2022-09-23T17:50:59.462Z,72.40
2022-09-23T17:53:26.193Z,72.00
2022-09-23T17:56:00.720Z,72.30
2022-09-23T17:58:30.102Z,72.50
2022-09-23T18:00:57.599Z,72.60
2022-09-23T18:03:26.021Z,72.90
2022-09-23T18:05:52.853Z,73.00
2022-09-23T18:08:19.462Z,73.10
2022-09-23T18:10:46.236Z,72.10
2022-09-23T18:13:12.828Z,73.10
2022-09-23T18:15:40.153Z,72.30
2022-09-23T18:18:07.102Z,73.30
2022-09-23T18:20:34.035Z,73.50
2022-09-23T18:23:00.716Z,73.60
2022-09-23T18:25:39.167Z,73.70
2022-09-23T18:28:06.813Z,73.80
2022-09-23T18:30:33.637Z,73.80
2022-09-23T18:33:01.518Z,73.90
2022-09-23T18:35:28.438Z,73.00
2022-09-23T18:37:55.976Z,73.80
2022-09-23T18:40:22.780Z,73.80
2022-09-23T18:42:50.211Z,73.90
2022-09-23T18:45:16.875Z,74.00
2022-09-23T18:48:02.014Z,74.00
2022-09-23T18:50:43.028Z,74.10
2022-09-23T18:53:10.192Z,73.90
2022-09-23T18:55:37.721Z,74.00
2022-09-23T18:58:07.339Z,74.00
2022-09-23T19:00:34.421Z,73.90
2022-09-23T19:03:01.152Z,74.10
2022-09-23T19:05:28.295Z,74.10
2022-09-23T19:07:55.371Z,74.10
2022-09-23T19:10:22.224Z,74.00
2022-09-23T19:12:49.128Z,73.90
2022-09-23T19:15:15.834Z,73.30
2022-09-23T19:17:42.708Z,74.00
2022-09-23T19:20:09.977Z,74.10
2022-09-23T19:22:36.603Z,73.30
2022-09-23T19:25:03.684Z,73.90
2022-09-23T19:27:30.343Z,74.00
2022-09-23T19:29:57.688Z,74.10
2022-09-23T19:32:26.960Z,74.20
2022-09-23T19:34:53.670Z,74.20
2022-09-23T19:37:20.891Z,74.20
2022-09-23T19:39:47.572Z,74.10
2022-09-23T19:42:16.741Z,74.00
2022-09-23T19:44:43.407Z,74.00
2022-09-23T19:47:15.447Z,74.10
2022-09-23T19:49:42.268Z,74.10
2022-09-23T19:52:08.887Z,74.20
2022-09-23T19:54:35.750Z,74.20
2022-09-23T19:57:02.563Z,74.10
2022-09-23T19:59:29.201Z,73.50
2022-09-23T20:01:55.934Z,74.10
2022-09-23T20:04:22.613Z,74.20
2022-09-23T20:06:49.579Z,73.60
2022-09-23T20:09:16.238Z,74.30
2022-09-23T20:11:42.944Z,74.40
2022-09-23T20:14:11.790Z,74.60
2022-09-23T20:16:38.677Z,74.60
2022-09-23T20:19:05.818Z,75.20
2022-09-23T20:21:33.437Z,74.60
2022-09-23T20:24:00.415Z,74.60
2022-09-23T20:26:45.842Z,75.20
2022-09-23T20:29:12.747Z,74.70
2022-09-23T20:31:41.489Z,74.60
2022-09-23T20:34:10.603Z,74.70
2022-09-23T20:36:39.118Z,74.70
2022-09-23T20:39:06.026Z,74.80
2022-09-23T20:41:37.262Z,74.90
2022-09-23T20:44:06.928Z,75.00
2022-09-23T20:46:34.305Z,75.00
2022-09-23T20:49:01.845Z,75.20
2022-09-23T20:51:28.575Z,75.20
2022-09-23T20:53:55.417Z,75.30
2022-09-23T20:56:22.382Z,75.30
2022-09-23T20:58:50.632Z,74.60
2022-09-23T21:01:18.264Z,75.20
2022-09-23T21:03:47.411Z,75.40
2022-09-23T21:06:16.151Z,75.40
2022-09-23T21:08:44.411Z,75.60
2022-09-23T21:11:16.785Z,75.60
2022-09-23T21:13:47.502Z,75.70
2022-09-23T21:16:16.033Z,75.70
2022-09-23T21:18:43.685Z,75.80
2022-09-23T21:21:12.133Z,75.90
2022-09-23T21:23:39.637Z,76.00
2022-09-23T21:26:11.951Z,76.10
2022-09-23T21:28:43.695Z,76.60
2022-09-23T21:31:22.639Z,76.20
2022-09-23T21:33:53.238Z,76.20
2022-09-23T21:36:20.321Z,76.30
2022-09-23T21:38:47.020Z,76.40
2022-09-23T21:41:13.825Z,76.50
2022-09-23T21:43:40.453Z,76.40
2022-09-23T21:46:12.649Z,75.70
2022-09-23T21:48:41.901Z,76.40
2022-09-23T21:51:14.655Z,76.50
2022-09-23T21:53:43.059Z,76.60
2022-09-23T21:56:15.723Z,76.70
2022-09-23T21:58:45.767Z,76.80
2022-09-23T22:01:18.072Z,76.80
2022-09-23T22:03:49.635Z,76.80
2022-09-23T22:06:21.222Z,76.80
2022-09-23T22:08:53.476Z,76.90
2022-09-23T22:11:41.281Z,76.80
2022-09-23T22:14:11.505Z,77.00
2022-09-23T22:16:39.167Z,77.00
2022-09-23T22:19:07.085Z,77.10
2022-09-23T22:21:36.535Z,77.00
2022-09-23T22:24:05.348Z,77.00
2022-09-23T22:26:34.472Z,76.90
2022-09-23T22:29:20.209Z,77.00
2022-09-23T22:32:05.370Z,76.90
2022-09-23T22:34:49.110Z,76.90
2022-09-23T22:37:19.009Z,77.00
2022-09-23T22:39:46.057Z,76.90
2022-09-23T22:42:13.195Z,76.90
2022-09-23T22:44:40.761Z,76.90
2022-09-23T22:47:08.052Z,76.90
2022-09-23T22:49:35.140Z,77.00
2022-09-23T22:52:03.952Z,77.10
2022-09-23T22:54:33.881Z,77.70
2022-09-23T22:57:03.065Z,77.30
2022-09-23T22:59:29.747Z,77.30
2022-09-23T23:01:58.766Z,77.30
2022-09-23T23:04:25.583Z,77.30
2022-09-23T23:06:52.238Z,77.40
2022-09-23T23:09:19.129Z,77.40
2022-09-23T23:11:47.061Z,77.50
2022-09-23T23:14:16.827Z,77.50
2022-09-23T23:16:45.985Z,77.60
2022-09-23T23:19:16.414Z,77.60
2022-09-23T23:21:44.054Z,77.60
2022-09-23T23:24:18.747Z,77.60
2022-09-23T23:26:45.871Z,77.70
2022-09-23T23:29:13.882Z,77.80
2022-09-23T23:31:41.254Z,77.80
2022-09-23T23:34:11.841Z,77.80
2022-09-23T23:36:38.614Z,77.80
2022-09-23T23:39:05.412Z,77.80
2022-09-23T23:41:32.131Z,77.20
2022-09-23T23:43:59.554Z,77.80
2022-09-23T23:46:28.267Z,77.20
2022-09-23T23:48:56.000Z,77.80
2022-09-23T23:51:25.845Z,78.00
2022-09-23T23:53:53.876Z,78.00
2022-09-23T23:56:22.557Z,78.10
2022-09-23T23:58:54.227Z,78.10
